Geian Maru — JD4125 — position and weather

sailwx.info

Track history (hours):
 
Tides and Currents Weather Stations Pressure Air Temp Water Temp Dewpoint Dewpoint Depression Visibility Wind Speed Wind Dir Waves Ship Positions

Geian Maru

Last reported at 2018-Jul-14 11:31 UTC. Time now 2018-Jul-18 10:36 UTC.
Position N 34°24' E 134°13'.

Length 62 m; draft 4.3 m.

Type: Cargo ship. MMSI: 431008867.

Date/timePositionNaut miles runAvg speedWind from/ knotsBaromVisibWave heightAir tempDewpointWater temp
2018-Jul-14 11:31N 34°24' E 134°13'019.4
2018-Jul-14 11:30N 34°24' E 134°13'714.1
2018-Jul-14 11:00N 34°25' E 134°22'713.2
2018-Jul-14 10:30N 34°28' E 134°29'612.6
2018-Jul-14 10:00N 34°30' E 134°36'612.9
2018-Jul-14 09:30N 34°33' E 134°44'713.4
2018-Jul-14 09:00N 34°35' E 134°51'712.6
2018-Jul-14 08:26N 34°38' E 134°59'410.0
2018-Jul-14 08:00N 34°36' E 135°04'610.7
2018-Jul-14 07:28N 34°36' E 135°11'611.9
2018-Jul-14 07:00N 34°37' E 135°18'611.6
2018-Jul-14 06:29N 34°39' E 135°25'2 4.7
2018-Jul-14 05:58N 34°39' E 135°28'0 0.0
2018-Jul-14 05:30N 34°39' E 135°28'0 0.0
2018-Jul-14 05:01N 34°39' E 135°28'0 0.0
2018-Jul-14 04:30N 34°39' E 135°28'0 0.0
2018-Jul-14 03:58N 34°39' E 135°28'0 0.0
2018-Jul-14 03:31N 34°39' E 135°28'0 0.0
2018-Jul-14 03:00N 34°39' E 135°28'0 0.0
2018-Jul-14 02:30N 34°39' E 135°28'0 0.0
2018-Jul-14 02:01N 34°39' E 135°28'0 0.0
2018-Jul-14 01:31N 34°39' E 135°28'0 0.0
2018-Jul-14 01:00N 34°39' E 135°28'0 0.0
2018-Jul-14 00:30N 34°39' E 135°28'0 0.1
2018-Jul-13 23:52N 34°39' E 135°28'0 0.1
2018-Jul-13 23:30N 34°39' E 135°28'0 0.0
2018-Jul-13 23:00N 34°39' E 135°28'0 0.0
2018-Jul-13 22:29N 34°39' E 135°28'0 0.0
2018-Jul-13 22:00N 34°39' E 135°28'0 0.0
2018-Jul-13 21:30N 34°39' E 135°28'0 0.0
2018-Jul-13 21:00N 34°39' E 135°28'0 0.0
2018-Jul-13 20:30N 34°39' E 135°28'0 0.0
2018-Jul-13 20:00N 34°39' E 135°28'0 0.0
2018-Jul-13 19:30N 34°39' E 135°28'0 0.0
2018-Jul-13 19:00N 34°39' E 135°28'0 0.0
2018-Jul-13 18:30N 34°39' E 135°28'0 0.0
2018-Jul-13 18:00N 34°39' E 135°28'0 0.0
2018-Jul-13 17:29N 34°39' E 135°28'0 0.0
2018-Jul-13 16:57N 34°39' E 135°28'0 0.0
2018-Jul-13 16:30N 34°39' E 135°28'0 0.0
2018-Jul-13 16:00N 34°39' E 135°28'0 0.0
2018-Jul-13 15:29N 34°39' E 135°28'0 0.0
2018-Jul-13 15:00N 34°39' E 135°28'0 0.0
2018-Jul-13 14:00N 34°39' E 135°28'0 0.0
2018-Jul-13 13:30N 34°39' E 135°28'0 0.0
2018-Jul-13 13:00N 34°39' E 135°28'0 0.0
2018-Jul-13 12:29N 34°39' E 135°28'0 0.0
2018-Jul-13 12:00N 34°39' E 135°28'0 0.0
2018-Jul-13 11:30N 34°39' E 135°28'0 0.0
2018-Jul-13 10:53N 34°39' E 135°28'0 0.0
2018-Jul-13 10:30N 34°39' E 135°28'0 0.0
2018-Jul-13 09:57N 34°39' E 135°28'0 0.0
2018-Jul-13 09:21N 34°39' E 135°28'0 0.0
2018-Jul-13 09:00N 34°39' E 135°28'0 0.0
2018-Jul-13 08:29N 34°39' E 135°28'0 0.4
2018-Jul-13 07:59N 34°39' E 135°27'4 8.9
2018-Jul-13 07:30N 34°37' E 135°23'3 0.4
2018-Jul-12 22:49N 34°35' E 135°26'0 0.5
2018-Jul-12 22:30N 34°35' E 135°26'0 0.0
2018-Jul-12 21:59N 34°35' E 135°26'0 0.0
2018-Jul-12 21:30N 34°35' E 135°26'0 0.0
2018-Jul-12 21:00N 34°35' E 135°26'2 3.2
2018-Jul-12 20:30N 34°36' E 135°25'5 9.8
2018-Jul-12 19:59N 34°34' E 135°19'511.4
2018-Jul-12 19:30N 34°30' E 135°14'510.5
2018-Jul-12 19:01N 34°26' E 135°10'5 9.7
2018-Jul-12 18:31N 34°22' E 135°06'510.2
2018-Jul-12 18:00N 34°18' E 135°04'4 8.9
2018-Jul-12 17:31N 34°13' E 135°03'510.4
2018-Jul-12 17:00N 34°08' E 135°01'611.2
2018-Jul-12 16:31N 34°03' E 135°00'710.9
2018-Jul-12 15:51N 33°56' E 135°02'232 9.5
2018-Jul-11 15:30N 35°01' E 139°32'611.5
2018-Jul-11 15:01N 35°04' E 139°37'612.6
2018-Jul-11 14:31N 35°08' E 139°43'611.6
2018-Jul-11 14:01N 35°14' E 139°46'611.2
2018-Jul-11 13:30N 35°19' E 139°43'611.2
2018-Jul-11 13:00N 35°24' E 139°43'5 9.1
2018-Jul-11 12:30N 35°23' E 139°49'3 4.1
2018-Jul-11 11:46N 35°21' E 139°51'0 0.0
2018-Jul-11 11:30N 35°21' E 139°51'0 0.0
2018-Jul-11 11:00N 35°21' E 139°51'0 0.0
2018-Jul-11 10:14N 35°21' E 139°51'0 0.0
2018-Jul-11 09:54N 35°21' E 139°51'0 0.0
2018-Jul-11 09:30N 35°21' E 139°51'0 0.0
2018-Jul-11 08:50N 35°21' E 139°51'0 0.0
2018-Jul-11 08:26N 35°21' E 139°51'0 0.0
2018-Jul-11 08:00N 35°21' E 139°51'0 0.0
2018-Jul-11 07:29N 35°21' E 139°51'0 0.0
2018-Jul-11 07:00N 35°21' E 139°51'0 0.0
2018-Jul-11 06:26N 35°21' E 139°51'0 0.0
2018-Jul-11 05:50N 35°21' E 139°51'0 0.0
2018-Jul-11 05:18N 35°21' E 139°51'0 0.0
2018-Jul-11 04:46N 35°21' E 139°51'0 0.0
2018-Jul-11 04:29N 35°21' E 139°51'0 0.0
2018-Jul-11 04:00N 35°21' E 139°51'0 0.0
2018-Jul-11 03:30N 35°21' E 139°51'0 0.0
2018-Jul-11 02:57N 35°21' E 139°51'0 0.0
2018-Jul-11 02:29N 35°21' E 139°51'0 0.0
2018-Jul-11 01:58N 35°21' E 139°51'0 0.0
2018-Jul-11 01:27N 35°21' E 139°51'0 0.0
2018-Jul-11 01:00N 35°21' E 139°51'0 0.0
2018-Jul-11 00:30N 35°21' E 139°51'0 0.0
2018-Jul-10 23:58N 35°21' E 139°51'0 0.0
2018-Jul-10 23:28N 35°21' E 139°51'0 0.0
2018-Jul-10 22:59N 35°21' E 139°51'0 0.0
2018-Jul-10 22:29N 35°21' E 139°51'0 0.0
2018-Jul-10 22:00N 35°21' E 139°51'0 0.0
2018-Jul-10 21:30N 35°21' E 139°51'0 0.0
2018-Jul-10 21:00N 35°21' E 139°51'0 0.0
2018-Jul-10 20:30N 35°21' E 139°51'0 0.0
2018-Jul-10 20:00N 35°21' E 139°51'0 0.0
2018-Jul-10 19:29N 35°21' E 139°51'0 0.0
2018-Jul-10 19:00N 35°21' E 139°51'0 0.0
2018-Jul-10 18:30N 35°21' E 139°51'0 0.0
2018-Jul-10 18:00N 35°21' E 139°51'0 0.0
2018-Jul-10 17:29N 35°21' E 139°51'0 0.0
2018-Jul-10 17:00N 35°21' E 139°51'0 0.0
2018-Jul-10 16:30N 35°21' E 139°51'0 0.0
2018-Jul-10 15:59N 35°21' E 139°51'0 0.0
2018-Jul-10 15:27N 35°21' E 139°51'0 0.0
2018-Jul-10 15:00N 35°21' E 139°51'0 0.0
2018-Jul-10 14:30N 35°21' E 139°51'0 0.0
2018-Jul-10 13:32N 35°21' E 139°51'0 0.0
2018-Jul-10 13:30N 35°21' E 139°51'0 0.0
2018-Jul-10 13:00N 35°21' E 139°51'0 0.0
2018-Jul-10 12:30N 35°21' E 139°51'0 0.0
2018-Jul-10 12:00N 35°21' E 139°51'0 0.0
2018-Jul-10 11:29N 35°21' E 139°51'1 0.4
2018-Jul-10 09:51N 35°21' E 139°51'3 9.6
2018-Jul-10 09:30N 35°25' E 139°49'611.9
2018-Jul-10 08:59N 35°30' E 139°52'711.8
2018-Jul-10 08:23N 35°36' E 139°57'0 0.0
2018-Jul-08 13:58N 35°37' E 139°57'611.1
2018-Jul-08 13:26N 35°31' E 139°54'511.8
2018-Jul-08 13:00N 35°27' E 139°50'611.9
2018-Jul-08 12:29N 35°22' E 139°45'511.1
2018-Jul-08 12:00N 35°17' E 139°45'611.4
2018-Jul-08 11:30N 35°11' E 139°47'611.7
2018-Jul-08 11:00N 35°06' E 139°44'611.9
2018-Jul-08 10:29N 35°01' E 139°39'713.6
2018-Jul-08 09:58N 34°57' E 139°32'1614.8
2018-Jul-08 08:52N 34°48' E 139°15'  
Track history (hours):
 
Tides and Currents Weather Stations Pressure Air Temp Water Temp Dewpoint Dewpoint Depression Visibility Wind Speed Wind Dir Waves Ship Positions

Geian Maru

Last reported at 2018-Jul-14 11:31 UTC. Time now 2018-Jul-18 10:36 UTC.
Position N 34°24' E 134°13'.

Length 62 m; draft 4.3 m.

Type: Cargo ship. MMSI: 431008867.

Date/timePositionNaut miles runAvg speedWind from/ knotsBaromVisibWave heightAir tempDewpointWater temp
2018-Jul-14 11:31N 34°24' E 134°13'019.4
2018-Jul-14 11:30N 34°24' E 134°13'714.1
2018-Jul-14 11:00N 34°25' E 134°22'713.2
2018-Jul-14 10:30N 34°28' E 134°29'612.6
2018-Jul-14 10:00N 34°30' E 134°36'612.9
2018-Jul-14 09:30N 34°33' E 134°44'713.4
2018-Jul-14 09:00N 34°35' E 134°51'712.6
2018-Jul-14 08:26N 34°38' E 134°59'410.0
2018-Jul-14 08:00N 34°36' E 135°04'610.7
2018-Jul-14 07:28N 34°36' E 135°11'611.9
2018-Jul-14 07:00N 34°37' E 135°18'611.6
2018-Jul-14 06:29N 34°39' E 135°25'2 4.7
2018-Jul-14 05:58N 34°39' E 135°28'0 0.0
2018-Jul-14 05:30N 34°39' E 135°28'0 0.0
2018-Jul-14 05:01N 34°39' E 135°28'0 0.0
2018-Jul-14 04:30N 34°39' E 135°28'0 0.0
2018-Jul-14 03:58N 34°39' E 135°28'0 0.0
2018-Jul-14 03:31N 34°39' E 135°28'0 0.0
2018-Jul-14 03:00N 34°39' E 135°28'0 0.0
2018-Jul-14 02:30N 34°39' E 135°28'0 0.0
2018-Jul-14 02:01N 34°39' E 135°28'0 0.0
2018-Jul-14 01:31N 34°39' E 135°28'0 0.0
2018-Jul-14 01:00N 34°39' E 135°28'0 0.0
2018-Jul-14 00:30N 34°39' E 135°28'0 0.1
2018-Jul-13 23:52N 34°39' E 135°28'0 0.1
2018-Jul-13 23:30N 34°39' E 135°28'0 0.0
2018-Jul-13 23:00N 34°39' E 135°28'0 0.0
2018-Jul-13 22:29N 34°39' E 135°28'0 0.0
2018-Jul-13 22:00N 34°39' E 135°28'0 0.0
2018-Jul-13 21:30N 34°39' E 135°28'0 0.0
2018-Jul-13 21:00N 34°39' E 135°28'0 0.0
2018-Jul-13 20:30N 34°39' E 135°28'0 0.0
2018-Jul-13 20:00N 34°39' E 135°28'0 0.0
2018-Jul-13 19:30N 34°39' E 135°28'0 0.0
2018-Jul-13 19:00N 34°39' E 135°28'0 0.0
2018-Jul-13 18:30N 34°39' E 135°28'0 0.0
2018-Jul-13 18:00N 34°39' E 135°28'0 0.0
2018-Jul-13 17:29N 34°39' E 135°28'0 0.0
2018-Jul-13 16:57N 34°39' E 135°28'0 0.0
2018-Jul-13 16:30N 34°39' E 135°28'0 0.0
2018-Jul-13 16:00N 34°39' E 135°28'0 0.0
2018-Jul-13 15:29N 34°39' E 135°28'0 0.0
2018-Jul-13 15:00N 34°39' E 135°28'0 0.0
2018-Jul-13 14:00N 34°39' E 135°28'0 0.0
2018-Jul-13 13:30N 34°39' E 135°28'0 0.0
2018-Jul-13 13:00N 34°39' E 135°28'0 0.0
2018-Jul-13 12:29N 34°39' E 135°28'0 0.0
2018-Jul-13 12:00N 34°39' E 135°28'0 0.0
2018-Jul-13 11:30N 34°39' E 135°28'0 0.0
2018-Jul-13 10:53N 34°39' E 135°28'0 0.0
2018-Jul-13 10:30N 34°39' E 135°28'0 0.0
2018-Jul-13 09:57N 34°39' E 135°28'0 0.0
2018-Jul-13 09:21N 34°39' E 135°28'0 0.0
2018-Jul-13 09:00N 34°39' E 135°28'0 0.0
2018-Jul-13 08:29N 34°39' E 135°28'0 0.4
2018-Jul-13 07:59N 34°39' E 135°27'4 8.9
2018-Jul-13 07:30N 34°37' E 135°23'3 0.4
2018-Jul-12 22:49N 34°35' E 135°26'0 0.5
2018-Jul-12 22:30N 34°35' E 135°26'0 0.0
2018-Jul-12 21:59N 34°35' E 135°26'0 0.0
2018-Jul-12 21:30N 34°35' E 135°26'0 0.0
2018-Jul-12 21:00N 34°35' E 135°26'2 3.2
2018-Jul-12 20:30N 34°36' E 135°25'5 9.8
2018-Jul-12 19:59N 34°34' E 135°19'511.4
2018-Jul-12 19:30N 34°30' E 135°14'510.5
2018-Jul-12 19:01N 34°26' E 135°10'5 9.7
2018-Jul-12 18:31N 34°22' E 135°06'510.2
2018-Jul-12 18:00N 34°18' E 135°04'4 8.9
2018-Jul-12 17:31N 34°13' E 135°03'510.4
2018-Jul-12 17:00N 34°08' E 135°01'611.2
2018-Jul-12 16:31N 34°03' E 135°00'710.9
2018-Jul-12 15:51N 33°56' E 135°02'232 9.5
2018-Jul-11 15:30N 35°01' E 139°32'611.5
2018-Jul-11 15:01N 35°04' E 139°37'612.6
2018-Jul-11 14:31N 35°08' E 139°43'611.6
2018-Jul-11 14:01N 35°14' E 139°46'611.2
2018-Jul-11 13:30N 35°19' E 139°43'611.2
2018-Jul-11 13:00N 35°24' E 139°43'5 9.1
2018-Jul-11 12:30N 35°23' E 139°49'3 4.1
2018-Jul-11 11:46N 35°21' E 139°51'0 0.0
2018-Jul-11 11:30N 35°21' E 139°51'0 0.0
2018-Jul-11 11:00N 35°21' E 139°51'0 0.0
2018-Jul-11 10:14N 35°21' E 139°51'0 0.0
2018-Jul-11 09:54N 35°21' E 139°51'0 0.0
2018-Jul-11 09:30N 35°21' E 139°51'0 0.0
2018-Jul-11 08:50N 35°21' E 139°51'0 0.0
2018-Jul-11 08:26N 35°21' E 139°51'0 0.0
2018-Jul-11 08:00N 35°21' E 139°51'0 0.0
2018-Jul-11 07:29N 35°21' E 139°51'0 0.0
2018-Jul-11 07:00N 35°21' E 139°51'0 0.0
2018-Jul-11 06:26N 35°21' E 139°51'0 0.0
2018-Jul-11 05:50N 35°21' E 139°51'0 0.0
2018-Jul-11 05:18N 35°21' E 139°51'0 0.0
2018-Jul-11 04:46N 35°21' E 139°51'0 0.0
2018-Jul-11 04:29N 35°21' E 139°51'0 0.0
2018-Jul-11 04:00N 35°21' E 139°51'0 0.0
2018-Jul-11 03:30N 35°21' E 139°51'0 0.0
2018-Jul-11 02:57N 35°21' E 139°51'0 0.0
2018-Jul-11 02:29N 35°21' E 139°51'0 0.0
2018-Jul-11 01:58N 35°21' E 139°51'0 0.0
2018-Jul-11 01:27N 35°21' E 139°51'0 0.0
2018-Jul-11 01:00N 35°21' E 139°51'0 0.0
2018-Jul-11 00:30N 35°21' E 139°51'0 0.0
2018-Jul-10 23:58N 35°21' E 139°51'0 0.0
2018-Jul-10 23:28N 35°21' E 139°51'0 0.0
2018-Jul-10 22:59N 35°21' E 139°51'0 0.0
2018-Jul-10 22:29N 35°21' E 139°51'0 0.0
2018-Jul-10 22:00N 35°21' E 139°51'0 0.0
2018-Jul-10 21:30N 35°21' E 139°51'0 0.0
2018-Jul-10 21:00N 35°21' E 139°51'0 0.0
2018-Jul-10 20:30N 35°21' E 139°51'0 0.0
2018-Jul-10 20:00N 35°21' E 139°51'0 0.0
2018-Jul-10 19:29N 35°21' E 139°51'0 0.0
2018-Jul-10 19:00N 35°21' E 139°51'0 0.0
2018-Jul-10 18:30N 35°21' E 139°51'0 0.0
2018-Jul-10 18:00N 35°21' E 139°51'0 0.0
2018-Jul-10 17:29N 35°21' E 139°51'0 0.0
2018-Jul-10 17:00N 35°21' E 139°51'0 0.0
2018-Jul-10 16:30N 35°21' E 139°51'0 0.0
2018-Jul-10 15:59N 35°21' E 139°51'0 0.0
2018-Jul-10 15:27N 35°21' E 139°51'0 0.0
2018-Jul-10 15:00N 35°21' E 139°51'0 0.0
2018-Jul-10 14:30N 35°21' E 139°51'0 0.0
2018-Jul-10 13:32N 35°21' E 139°51'0 0.0
2018-Jul-10 13:30N 35°21' E 139°51'0 0.0
2018-Jul-10 13:00N 35°21' E 139°51'0 0.0
2018-Jul-10 12:30N 35°21' E 139°51'0 0.0
2018-Jul-10 12:00N 35°21' E 139°51'0 0.0
2018-Jul-10 11:29N 35°21' E 139°51'1 0.4
2018-Jul-10 09:51N 35°21' E 139°51'3 9.6
2018-Jul-10 09:30N 35°25' E 139°49'611.9
2018-Jul-10 08:59N 35°30' E 139°52'711.8
2018-Jul-10 08:23N 35°36' E 139°57'0 0.0
2018-Jul-08 13:58N 35°37' E 139°57'611.1
2018-Jul-08 13:26N 35°31' E 139°54'511.8
2018-Jul-08 13:00N 35°27' E 139°50'611.9
2018-Jul-08 12:29N 35°22' E 139°45'511.1
2018-Jul-08 12:00N 35°17' E 139°45'611.4
2018-Jul-08 11:30N 35°11' E 139°47'611.7
2018-Jul-08 11:00N 35°06' E 139°44'611.9
2018-Jul-08 10:29N 35°01' E 139°39'713.6
2018-Jul-08 09:58N 34°57' E 139°32'1614.8
2018-Jul-08 08:52N 34°48' E 139°15'  

Dump ship's entire track history